sensor_id;sensor_type;location;lat;lon;timestamp;P1;durP1;ratioP1;P2;durP2;ratioP2
15673;SDS011;7937;48.090;16.212;2023-05-14T00:00:31;31.20;;;24.40;;
15673;SDS011;7937;48.090;16.212;2023-05-14T00:03:47;31.37;;;25.83;;
15673;SDS011;7937;48.090;16.212;2023-05-14T00:06:50;31.17;;;23.43;;
15673;SDS011;7937;48.090;16.212;2023-05-14T00:09:52;31.40;;;25.20;;
15673;SDS011;7937;48.090;16.212;2023-05-14T00:12:54;28.03;;;23.80;;
15673;SDS011;7937;48.090;16.212;2023-05-14T00:15:56;25.43;;;22.70;;
15673;SDS011;7937;48.090;16.212;2023-05-14T00:18:59;34.27;;;24.97;;
15673;SDS011;7937;48.090;16.212;2023-05-14T00:22:02;31.73;;;25.33;;
15673;SDS011;7937;48.090;16.212;2023-05-14T00:25:04;31.87;;;24.20;;
15673;SDS011;7937;48.090;16.212;2023-05-14T00:28:09;24.07;;;21.47;;
15673;SDS011;7937;48.090;16.212;2023-05-14T00:31:17;30.97;;;25.07;;
15673;SDS011;7937;48.090;16.212;2023-05-14T00:34:19;28.23;;;22.30;;
15673;SDS011;7937;48.090;16.212;2023-05-14T00:37:22;29.13;;;25.87;;
15673;SDS011;7937;48.090;16.212;2023-05-14T00:40:24;28.53;;;24.00;;
15673;SDS011;7937;48.090;16.212;2023-05-14T00:43:27;28.77;;;24.37;;
15673;SDS011;7937;48.090;16.212;2023-05-14T00:46:30;27.63;;;22.83;;
15673;SDS011;7937;48.090;16.212;2023-05-14T00:49:32;34.53;;;25.87;;
15673;SDS011;7937;48.090;16.212;2023-05-14T00:52:42;30.07;;;23.20;;
15673;SDS011;7937;48.090;16.212;2023-05-14T00:55:44;30.93;;;24.13;;
15673;SDS011;7937;48.090;16.212;2023-05-14T00:58:48;29.23;;;24.23;;
15673;SDS011;7937;48.090;16.212;2023-05-14T01:01:50;32.30;;;23.20;;
15673;SDS011;7937;48.090;16.212;2023-05-14T01:04:53;26.10;;;23.30;;
15673;SDS011;7937;48.090;16.212;2023-05-14T01:08:00;30.27;;;24.17;;
15673;SDS011;7937;48.090;16.212;2023-05-14T01:11:12;28.83;;;24.33;;
15673;SDS011;7937;48.090;16.212;2023-05-14T01:14:26;34.93;;;25.63;;
15673;SDS011;7937;48.090;16.212;2023-05-14T01:17:34;29.37;;;24.27;;
15673;SDS011;7937;48.090;16.212;2023-05-14T01:20:43;28.43;;;24.30;;
15673;SDS011;7937;48.090;16.212;2023-05-14T01:23:51;26.50;;;22.13;;
15673;SDS011;7937;48.090;16.212;2023-05-14T01:26:54;30.37;;;24.63;;
15673;SDS011;7937;48.090;16.212;2023-05-14T01:30:18;30.53;;;24.90;;
15673;SDS011;7937;48.090;16.212;2023-05-14T01:33:26;33.47;;;24.93;;
15673;SDS011;7937;48.090;16.212;2023-05-14T01:36:33;32.10;;;25.17;;
15673;SDS011;7937;48.090;16.212;2023-05-14T01:39:57;31.87;;;26.63;;
15673;SDS011;7937;48.090;16.212;2023-05-14T01:43:17;30.80;;;24.93;;
15673;SDS011;7937;48.090;16.212;2023-05-14T01:46:35;31.27;;;25.07;;
15673;SDS011;7937;48.090;16.212;2023-05-14T01:49:41;27.60;;;22.90;;
15673;SDS011;7937;48.090;16.212;2023-05-14T01:52:45;27.30;;;20.57;;
15673;SDS011;7937;48.090;16.212;2023-05-14T01:55:49;25.67;;;22.00;;
15673;SDS011;7937;48.090;16.212;2023-05-14T01:58:51;25.50;;;20.30;;
15673;SDS011;7937;48.090;16.212;2023-05-14T02:01:54;24.97;;;20.97;;
15673;SDS011;7937;48.090;16.212;2023-05-14T02:04:56;24.23;;;20.80;;
15673;SDS011;7937;48.090;16.212;2023-05-14T02:07:59;26.67;;;21.90;;
15673;SDS011;7937;48.090;16.212;2023-05-14T02:11:01;26.93;;;21.23;;
15673;SDS011;7937;48.090;16.212;2023-05-14T02:14:04;22.40;;;19.70;;
15673;SDS011;7937;48.090;16.212;2023-05-14T02:17:06;21.40;;;18.20;;
15673;SDS011;7937;48.090;16.212;2023-05-14T02:20:09;22.97;;;18.00;;
15673;SDS011;7937;48.090;16.212;2023-05-14T02:23:12;20.83;;;18.63;;
15673;SDS011;7937;48.090;16.212;2023-05-14T02:26:16;22.03;;;19.53;;
15673;SDS011;7937;48.090;16.212;2023-05-14T02:29:18;25.77;;;20.23;;
15673;SDS011;7937;48.090;16.212;2023-05-14T02:32:21;24.67;;;19.60;;
15673;SDS011;7937;48.090;16.212;2023-05-14T02:35:24;20.30;;;18.00;;
15673;SDS011;7937;48.090;16.212;2023-05-14T02:38:28;21.90;;;18.07;;
15673;SDS011;7937;48.090;16.212;2023-05-14T02:41:30;20.13;;;17.87;;
15673;SDS011;7937;48.090;16.212;2023-05-14T02:44:33;22.33;;;17.83;;
15673;SDS011;7937;48.090;16.212;2023-05-14T02:47:35;20.33;;;17.77;;
15673;SDS011;7937;48.090;16.212;2023-05-14T02:50:38;24.00;;;19.20;;
15673;SDS011;7937;48.090;16.212;2023-05-14T02:53:41;19.70;;;17.47;;
15673;SDS011;7937;48.090;16.212;2023-05-14T02:56:43;21.10;;;18.80;;
15673;SDS011;7937;48.090;16.212;2023-05-14T02:59:45;18.63;;;15.37;;
15673;SDS011;7937;48.090;16.212;2023-05-14T03:02:48;20.47;;;17.60;;
15673;SDS011;7937;48.090;16.212;2023-05-14T03:05:51;21.63;;;16.70;;
15673;SDS011;7937;48.090;16.212;2023-05-14T03:09:08;20.03;;;17.07;;
15673;SDS011;7937;48.090;16.212;2023-05-14T03:12:21;18.57;;;13.50;;
15673;SDS011;7937;48.090;16.212;2023-05-14T03:15:25;23.27;;;20.20;;
15673;SDS011;7937;48.090;16.212;2023-05-14T03:18:27;23.90;;;19.77;;
15673;SDS011;7937;48.090;16.212;2023-05-14T03:21:31;20.97;;;18.23;;
15673;SDS011;7937;48.090;16.212;2023-05-14T03:24:36;24.10;;;19.03;;
15673;SDS011;7937;48.090;16.212;2023-05-14T03:27:40;22.63;;;18.73;;
15673;SDS011;7937;48.090;16.212;2023-05-14T03:30:42;19.17;;;17.13;;
15673;SDS011;7937;48.090;16.212;2023-05-14T03:33:44;22.10;;;18.27;;
15673;SDS011;7937;48.090;16.212;2023-05-14T03:36:47;23.67;;;19.10;;
15673;SDS011;7937;48.090;16.212;2023-05-14T03:39:49;23.10;;;18.07;;
15673;SDS011;7937;48.090;16.212;2023-05-14T03:42:51;20.70;;;18.47;;
15673;SDS011;7937;48.090;16.212;2023-05-14T03:45:54;21.80;;;18.80;;
15673;SDS011;7937;48.090;16.212;2023-05-14T03:48:56;20.13;;;17.00;;
15673;SDS011;7937;48.090;16.212;2023-05-14T03:51:58;20.87;;;17.53;;
15673;SDS011;7937;48.090;16.212;2023-05-14T03:55:01;20.23;;;17.80;;
15673;SDS011;7937;48.090;16.212;2023-05-14T03:58:03;19.97;;;15.80;;
15673;SDS011;7937;48.090;16.212;2023-05-14T04:01:11;17.40;;;15.60;;
15673;SDS011;7937;48.090;16.212;2023-05-14T04:04:13;21.63;;;17.53;;
15673;SDS011;7937;48.090;16.212;2023-05-14T04:07:16;19.83;;;15.83;;
15673;SDS011;7937;48.090;16.212;2023-05-14T04:10:19;17.37;;;14.50;;
15673;SDS011;7937;48.090;16.212;2023-05-14T04:13:21;17.53;;;14.57;;
15673;SDS011;7937;48.090;16.212;2023-05-14T04:16:23;15.20;;;13.60;;
15673;SDS011;7937;48.090;16.212;2023-05-14T04:19:25;15.23;;;13.70;;
15673;SDS011;7937;48.090;16.212;2023-05-14T04:22:27;15.27;;;13.60;;
15673;SDS011;7937;48.090;16.212;2023-05-14T04:25:29;14.33;;;12.93;;
15673;SDS011;7937;48.090;16.212;2023-05-14T04:28:32;18.10;;;14.90;;
15673;SDS011;7937;48.090;16.212;2023-05-14T04:31:34;18.03;;;15.13;;
15673;SDS011;7937;48.090;16.212;2023-05-14T04:34:37;16.20;;;14.50;;
15673;SDS011;7937;48.090;16.212;2023-05-14T04:37:39;14.63;;;13.23;;
15673;SDS011;7937;48.090;16.212;2023-05-14T04:40:42;16.47;;;13.53;;
15673;SDS011;7937;48.090;16.212;2023-05-14T04:43:45;16.37;;;14.00;;
15673;SDS011;7937;48.090;16.212;2023-05-14T04:46:50;15.13;;;13.63;;
15673;SDS011;7937;48.090;16.212;2023-05-14T04:49:54;15.90;;;13.73;;
15673;SDS011;7937;48.090;16.212;2023-05-14T04:52:56;14.77;;;13.23;;
15673;SDS011;7937;48.090;16.212;2023-05-14T04:55:59;15.77;;;13.70;;
15673;SDS011;7937;48.090;16.212;2023-05-14T04:59:01;14.20;;;12.70;;
15673;SDS011;7937;48.090;16.212;2023-05-14T05:02:03;13.73;;;12.33;;
15673;SDS011;7937;48.090;16.212;2023-05-14T05:05:05;14.27;;;12.83;;
15673;SDS011;7937;48.090;16.212;2023-05-14T05:08:08;15.20;;;13.20;;
15673;SDS011;7937;48.090;16.212;2023-05-14T05:11:12;14.90;;;13.37;;
15673;SDS011;7937;48.090;16.212;2023-05-14T05:14:15;15.70;;;14.10;;
15673;SDS011;7937;48.090;16.212;2023-05-14T05:17:18;15.47;;;12.77;;
15673;SDS011;7937;48.090;16.212;2023-05-14T05:20:22;16.03;;;14.40;;
15673;SDS011;7937;48.090;16.212;2023-05-14T05:23:26;13.33;;;11.93;;
15673;SDS011;7937;48.090;16.212;2023-05-14T05:26:29;16.17;;;13.70;;
15673;SDS011;7937;48.090;16.212;2023-05-14T05:29:33;13.80;;;12.27;;
15673;SDS011;7937;48.090;16.212;2023-05-14T05:32:36;21.47;;;13.33;;
15673;SDS011;7937;48.090;16.212;2023-05-14T05:35:50;21.80;;;14.97;;
15673;SDS011;7937;48.090;16.212;2023-05-14T05:39:05;16.47;;;14.77;;
15673;SDS011;7937;48.090;16.212;2023-05-14T05:42:24;15.37;;;12.70;;
15673;SDS011;7937;48.090;16.212;2023-05-14T05:45:27;14.93;;;12.67;;
15673;SDS011;7937;48.090;16.212;2023-05-14T05:48:31;17.63;;;13.10;;
15673;SDS011;7937;48.090;16.212;2023-05-14T05:51:47;14.43;;;12.07;;
15673;SDS011;7937;48.090;16.212;2023-05-14T05:54:59;15.23;;;12.03;;
15673;SDS011;7937;48.090;16.212;2023-05-14T05:58:15;13.27;;;11.60;;
15673;SDS011;7937;48.090;16.212;2023-05-14T06:01:21;12.63;;;11.33;;
15673;SDS011;7937;48.090;16.212;2023-05-14T06:04:33;11.93;;;10.40;;
15673;SDS011;7937;48.090;16.212;2023-05-14T06:07:50;11.93;;;10.67;;
15673;SDS011;7937;48.090;16.212;2023-05-14T06:10:58;11.93;;;10.83;;
15673;SDS011;7937;48.090;16.212;2023-05-14T06:14:01;10.90;;;9.80;;
15673;SDS011;7937;48.090;16.212;2023-05-14T06:17:04;13.73;;;10.63;;
15673;SDS011;7937;48.090;16.212;2023-05-14T06:20:06;12.33;;;11.10;;
15673;SDS011;7937;48.090;16.212;2023-05-14T06:23:10;13.00;;;11.63;;
15673;SDS011;7937;48.090;16.212;2023-05-14T06:26:13;14.77;;;13.27;;
15673;SDS011;7937;48.090;16.212;2023-05-14T06:29:17;14.57;;;12.97;;
15673;SDS011;7937;48.090;16.212;2023-05-14T06:32:21;14.53;;;13.03;;
15673;SDS011;7937;48.090;16.212;2023-05-14T06:35:25;19.53;;;13.97;;
15673;SDS011;7937;48.090;16.212;2023-05-14T06:38:28;16.17;;;13.00;;
15673;SDS011;7937;48.090;16.212;2023-05-14T06:41:34;16.03;;;14.03;;
15673;SDS011;7937;48.090;16.212;2023-05-14T06:44:37;16.43;;;14.83;;
15673;SDS011;7937;48.090;16.212;2023-05-14T06:47:39;17.80;;;16.10;;
15673;SDS011;7937;48.090;16.212;2023-05-14T06:50:42;17.10;;;15.60;;
15673;SDS011;7937;48.090;16.212;2023-05-14T06:53:45;19.13;;;17.27;;
15673;SDS011;7937;48.090;16.212;2023-05-14T06:56:52;20.67;;;18.67;;
15673;SDS011;7937;48.090;16.212;2023-05-14T06:59:55;21.90;;;19.83;;
15673;SDS011;7937;48.090;16.212;2023-05-14T07:03:08;19.33;;;17.43;;
15673;SDS011;7937;48.090;16.212;2023-05-14T07:06:18;19.47;;;16.63;;
15673;SDS011;7937;48.090;16.212;2023-05-14T07:09:28;20.60;;;15.07;;
15673;SDS011;7937;48.090;16.212;2023-05-14T07:12:45;15.93;;;14.43;;
15673;SDS011;7937;48.090;16.212;2023-05-14T07:15:48;15.60;;;14.20;;
15673;SDS011;7937;48.090;16.212;2023-05-14T07:18:52;13.90;;;12.60;;
15673;SDS011;7937;48.090;16.212;2023-05-14T07:21:55;15.20;;;13.60;;
15673;SDS011;7937;48.090;16.212;2023-05-14T07:24:58;17.43;;;15.73;;
15673;SDS011;7937;48.090;16.212;2023-05-14T07:28:00;18.37;;;16.77;;
15673;SDS011;7937;48.090;16.212;2023-05-14T07:31:03;18.60;;;16.83;;
15673;SDS011;7937;48.090;16.212;2023-05-14T07:34:10;17.43;;;15.40;;
15673;SDS011;7937;48.090;16.212;2023-05-14T07:37:19;16.07;;;14.37;;
15673;SDS011;7937;48.090;16.212;2023-05-14T07:40:28;17.33;;;15.73;;
15673;SDS011;7937;48.090;16.212;2023-05-14T07:43:43;13.90;;;12.60;;
15673;SDS011;7937;48.090;16.212;2023-05-14T07:46:48;12.80;;;11.60;;
15673;SDS011;7937;48.090;16.212;2023-05-14T07:49:53;13.53;;;12.17;;
15673;SDS011;7937;48.090;16.212;2023-05-14T07:52:57;11.47;;;10.40;;
15673;SDS011;7937;48.090;16.212;2023-05-14T07:56:00;11.17;;;10.07;;
15673;SDS011;7937;48.090;16.212;2023-05-14T07:59:03;10.13;;;9.30;;
15673;SDS011;7937;48.090;16.212;2023-05-14T08:02:07;8.90;;;8.10;;
15673;SDS011;7937;48.090;16.212;2023-05-14T08:05:14;9.80;;;7.60;;
15673;SDS011;7937;48.090;16.212;2023-05-14T08:08:20;8.67;;;7.87;;
15673;SDS011;7937;48.090;16.212;2023-05-14T08:11:35;8.07;;;7.37;;
15673;SDS011;7937;48.090;16.212;2023-05-14T08:14:53;9.23;;;6.97;;
15673;SDS011;7937;48.090;16.212;2023-05-14T08:17:56;8.07;;;6.87;;
15673;SDS011;7937;48.090;16.212;2023-05-14T08:21:04;7.17;;;6.33;;
15673;SDS011;7937;48.090;16.212;2023-05-14T08:24:07;7.17;;;6.53;;
15673;SDS011;7937;48.090;16.212;2023-05-14T08:27:10;6.43;;;5.83;;
15673;SDS011;7937;48.090;16.212;2023-05-14T08:30:17;6.57;;;5.83;;
15673;SDS011;7937;48.090;16.212;2023-05-14T08:33:20;6.20;;;5.70;;
15673;SDS011;7937;48.090;16.212;2023-05-14T08:36:23;6.73;;;6.13;;
15673;SDS011;7937;48.090;16.212;2023-05-14T08:39:26;7.50;;;6.10;;
15673;SDS011;7937;48.090;16.212;2023-05-14T08:42:28;6.70;;;6.10;;
15673;SDS011;7937;48.090;16.212;2023-05-14T08:45:32;8.83;;;5.27;;
15673;SDS011;7937;48.090;16.212;2023-05-14T08:48:37;7.57;;;5.70;;
15673;SDS011;7937;48.090;16.212;2023-05-14T08:51:44;6.07;;;5.47;;
15673;SDS011;7937;48.090;16.212;2023-05-14T08:54:51;6.23;;;5.63;;
15673;SDS011;7937;48.090;16.212;2023-05-14T08:57:55;5.93;;;5.33;;
15673;SDS011;7937;48.090;16.212;2023-05-14T09:00:58;5.53;;;5.03;;
15673;SDS011;7937;48.090;16.212;2023-05-14T09:04:01;7.03;;;5.53;;
15673;SDS011;7937;48.090;16.212;2023-05-14T09:07:09;6.43;;;5.10;;
15673;SDS011;7937;48.090;16.212;2023-05-14T09:10:12;5.80;;;5.30;;
15673;SDS011;7937;48.090;16.212;2023-05-14T09:13:16;7.97;;;5.33;;
15673;SDS011;7937;48.090;16.212;2023-05-14T09:16:19;5.90;;;5.40;;
15673;SDS011;7937;48.090;16.212;2023-05-14T09:19:22;6.23;;;5.63;;
15673;SDS011;7937;48.090;16.212;2023-05-14T09:22:25;5.47;;;5.00;;
15673;SDS011;7937;48.090;16.212;2023-05-14T09:25:33;5.67;;;5.17;;
15673;SDS011;7937;48.090;16.212;2023-05-14T09:28:40;6.77;;;5.57;;
15673;SDS011;7937;48.090;16.212;2023-05-14T09:31:44;6.90;;;6.23;;
15673;SDS011;7937;48.090;16.212;2023-05-14T09:34:46;8.97;;;6.47;;
15673;SDS011;7937;48.090;16.212;2023-05-14T09:37:50;6.10;;;5.60;;
15673;SDS011;7937;48.090;16.212;2023-05-14T09:40:54;7.07;;;5.93;;
15673;SDS011;7937;48.090;16.212;2023-05-14T09:43:57;6.77;;;6.10;;
15673;SDS011;7937;48.090;16.212;2023-05-14T09:47:00;6.73;;;6.13;;
15673;SDS011;7937;48.090;16.212;2023-05-14T09:50:03;6.47;;;5.87;;
15673;SDS011;7937;48.090;16.212;2023-05-14T09:53:06;6.87;;;5.70;;
15673;SDS011;7937;48.090;16.212;2023-05-14T09:56:09;6.47;;;5.87;;
15673;SDS011;7937;48.090;16.212;2023-05-14T09:59:11;6.13;;;5.60;;
15673;SDS011;7937;48.090;16.212;2023-05-14T10:02:21;5.87;;;5.37;;
15673;SDS011;7937;48.090;16.212;2023-05-14T10:05:32;4.93;;;4.43;;
15673;SDS011;7937;48.090;16.212;2023-05-14T10:08:40;5.10;;;4.70;;
15673;SDS011;7937;48.090;16.212;2023-05-14T10:11:45;5.00;;;4.60;;
15673;SDS011;7937;48.090;16.212;2023-05-14T10:14:53;3.90;;;3.60;;
15673;SDS011;7937;48.090;16.212;2023-05-14T10:18:05;4.90;;;4.40;;
15673;SDS011;7937;48.090;16.212;2023-05-14T10:25:36;4.43;;;4.03;;
15673;SDS011;7937;48.090;16.212;2023-05-14T10:28:39;4.77;;;4.37;;
15673;SDS011;7937;48.090;16.212;2023-05-14T10:34:53;5.03;;;4.03;;
15673;SDS011;7937;48.090;16.212;2023-05-14T10:37:56;4.30;;;3.90;;
15673;SDS011;7937;48.090;16.212;2023-05-14T10:41:04;4.20;;;3.90;;
15673;SDS011;7937;48.090;16.212;2023-05-14T10:44:08;4.53;;;4.13;;
15673;SDS011;7937;48.090;16.212;2023-05-14T10:47:12;4.50;;;4.13;;
15673;SDS011;7937;48.090;16.212;2023-05-14T10:50:17;7.07;;;4.50;;
15673;SDS011;7937;48.090;16.212;2023-05-14T10:53:25;4.97;;;4.00;;
15673;SDS011;7937;48.090;16.212;2023-05-14T10:56:49;5.53;;;5.03;;
15673;SDS011;7937;48.090;16.212;2023-05-14T10:59:55;5.47;;;4.97;;
15673;SDS011;7937;48.090;16.212;2023-05-14T11:02:58;5.77;;;5.27;;
15673;SDS011;7937;48.090;16.212;2023-05-14T11:06:01;5.40;;;4.90;;
15673;SDS011;7937;48.090;16.212;2023-05-14T11:09:05;5.57;;;4.80;;
15673;SDS011;7937;48.090;16.212;2023-05-14T11:12:08;5.57;;;4.90;;
15673;SDS011;7937;48.090;16.212;2023-05-14T11:15:12;7.67;;;5.90;;
15673;SDS011;7937;48.090;16.212;2023-05-14T11:18:26;6.40;;;5.80;;
15673;SDS011;7937;48.090;16.212;2023-05-14T11:21:36;6.83;;;6.13;;
15673;SDS011;7937;48.090;16.212;2023-05-14T11:24:53;8.17;;;6.40;;
15673;SDS011;7937;48.090;16.212;2023-05-14T11:28:07;7.20;;;6.60;;
15673;SDS011;7937;48.090;16.212;2023-05-14T11:31:16;7.47;;;6.57;;
15673;SDS011;7937;48.090;16.212;2023-05-14T11:34:20;7.17;;;6.47;;
15673;SDS011;7937;48.090;16.212;2023-05-14T11:37:23;7.27;;;6.67;;
15673;SDS011;7937;48.090;16.212;2023-05-14T11:40:25;6.07;;;5.47;;
15673;SDS011;7937;48.090;16.212;2023-05-14T11:43:27;6.63;;;6.03;;
15673;SDS011;7937;48.090;16.212;2023-05-14T11:46:31;7.27;;;6.27;;
15673;SDS011;7937;48.090;16.212;2023-05-14T11:49:33;6.13;;;5.63;;
15673;SDS011;7937;48.090;16.212;2023-05-14T11:52:39;5.87;;;5.37;;
15673;SDS011;7937;48.090;16.212;2023-05-14T11:55:42;5.50;;;5.00;;
15673;SDS011;7937;48.090;16.212;2023-05-14T11:58:47;5.50;;;5.10;;
15673;SDS011;7937;48.090;16.212;2023-05-14T12:01:50;5.30;;;4.80;;
15673;SDS011;7937;48.090;16.212;2023-05-14T12:04:55;5.10;;;4.70;;
15673;SDS011;7937;48.090;16.212;2023-05-14T12:07:58;6.20;;;5.50;;
15673;SDS011;7937;48.090;16.212;2023-05-14T12:11:01;6.03;;;5.53;;
15673;SDS011;7937;48.090;16.212;2023-05-14T12:14:11;5.83;;;5.30;;
15673;SDS011;7937;48.090;16.212;2023-05-14T12:17:18;5.70;;;5.20;;
15673;SDS011;7937;48.090;16.212;2023-05-14T12:20:22;5.70;;;5.20;;
15673;SDS011;7937;48.090;16.212;2023-05-14T12:23:28;9.47;;;5.07;;
15673;SDS011;7937;48.090;16.212;2023-05-14T12:26:32;7.07;;;6.40;;
15673;SDS011;7937;48.090;16.212;2023-05-14T12:29:35;5.43;;;4.93;;
15673;SDS011;7937;48.090;16.212;2023-05-14T12:32:40;6.63;;;6.03;;
15673;SDS011;7937;48.090;16.212;2023-05-14T12:35:43;6.67;;;5.97;;
15673;SDS011;7937;48.090;16.212;2023-05-14T12:38:45;6.00;;;5.50;;
15673;SDS011;7937;48.090;16.212;2023-05-14T12:41:48;7.63;;;6.90;;
15673;SDS011;7937;48.090;16.212;2023-05-14T12:44:50;9.30;;;8.40;;
15673;SDS011;7937;48.090;16.212;2023-05-14T12:47:52;9.80;;;8.80;;
15673;SDS011;7937;48.090;16.212;2023-05-14T12:50:55;9.13;;;8.23;;
15673;SDS011;7937;48.090;16.212;2023-05-14T12:53:58;10.13;;;9.17;;
15673;SDS011;7937;48.090;16.212;2023-05-14T12:57:02;11.10;;;10.00;;
15673;SDS011;7937;48.090;16.212;2023-05-14T13:00:05;10.53;;;9.63;;
15673;SDS011;7937;48.090;16.212;2023-05-14T13:03:12;11.57;;;10.47;;
15673;SDS011;7937;48.090;16.212;2023-05-14T13:06:14;11.73;;;10.17;;
15673;SDS011;7937;48.090;16.212;2023-05-14T13:09:17;9.77;;;8.87;;
15673;SDS011;7937;48.090;16.212;2023-05-14T13:12:19;10.60;;;9.60;;
15673;SDS011;7937;48.090;16.212;2023-05-14T13:15:22;9.63;;;8.57;;
15673;SDS011;7937;48.090;16.212;2023-05-14T13:18:24;9.90;;;9.00;;
15673;SDS011;7937;48.090;16.212;2023-05-14T13:21:27;9.73;;;8.73;;
15673;SDS011;7937;48.090;16.212;2023-05-14T13:24:30;9.90;;;8.90;;
15673;SDS011;7937;48.090;16.212;2023-05-14T13:27:32;12.90;;;8.43;;
15673;SDS011;7937;48.090;16.212;2023-05-14T13:30:36;10.03;;;8.80;;
15673;SDS011;7937;48.090;16.212;2023-05-14T13:33:40;8.97;;;8.00;;
15673;SDS011;7937;48.090;16.212;2023-05-14T13:36:43;8.47;;;7.67;;
15673;SDS011;7937;48.090;16.212;2023-05-14T13:39:47;9.10;;;8.30;;
15673;SDS011;7937;48.090;16.212;2023-05-14T13:42:52;7.93;;;7.23;;
15673;SDS011;7937;48.090;16.212;2023-05-14T13:46:02;8.97;;;7.83;;
15673;SDS011;7937;48.090;16.212;2023-05-14T13:49:18;9.33;;;8.43;;
15673;SDS011;7937;48.090;16.212;2023-05-14T13:52:24;9.07;;;7.67;;
15673;SDS011;7937;48.090;16.212;2023-05-14T13:59:07;12.60;;;9.20;;
15673;SDS011;7937;48.090;16.212;2023-05-14T14:02:11;12.00;;;8.53;;
15673;SDS011;7937;48.090;16.212;2023-05-14T14:05:13;9.60;;;8.70;;
15673;SDS011;7937;48.090;16.212;2023-05-14T14:08:16;10.63;;;9.00;;
15673;SDS011;7937;48.090;16.212;2023-05-14T14:11:25;11.00;;;8.97;;
15673;SDS011;7937;48.090;16.212;2023-05-14T14:14:27;9.13;;;8.23;;
15673;SDS011;7937;48.090;16.212;2023-05-14T14:17:30;9.93;;;9.00;;
15673;SDS011;7937;48.090;16.212;2023-05-14T14:20:34;10.47;;;9.47;;
15673;SDS011;7937;48.090;16.212;2023-05-14T14:23:36;8.63;;;7.83;;
15673;SDS011;7937;48.090;16.212;2023-05-14T14:26:39;8.80;;;8.00;;
15673;SDS011;7937;48.090;16.212;2023-05-14T14:29:41;10.47;;;8.40;;
15673;SDS011;7937;48.090;16.212;2023-05-14T14:32:44;8.10;;;7.40;;
15673;SDS011;7937;48.090;16.212;2023-05-14T14:35:47;8.40;;;7.67;;
15673;SDS011;7937;48.090;16.212;2023-05-14T14:38:49;8.50;;;7.77;;
15673;SDS011;7937;48.090;16.212;2023-05-14T14:41:52;10.47;;;6.87;;
15673;SDS011;7937;48.090;16.212;2023-05-14T14:44:54;8.63;;;7.43;;
15673;SDS011;7937;48.090;16.212;2023-05-14T14:51:25;7.33;;;6.70;;
15673;SDS011;7937;48.090;16.212;2023-05-14T14:54:28;9.23;;;8.27;;
15673;SDS011;7937;48.090;16.212;2023-05-14T14:57:30;9.30;;;7.10;;
15673;SDS011;7937;48.090;16.212;2023-05-14T15:00:32;7.37;;;6.67;;
15673;SDS011;7937;48.090;16.212;2023-05-14T15:03:34;11.97;;;7.87;;
15673;SDS011;7937;48.090;16.212;2023-05-14T15:06:38;9.17;;;8.27;;
15673;SDS011;7937;48.090;16.212;2023-05-14T15:09:44;9.40;;;8.50;;
15673;SDS011;7937;48.090;16.212;2023-05-14T15:12:46;8.23;;;7.33;;
15673;SDS011;7937;48.090;16.212;2023-05-14T15:15:49;8.40;;;7.40;;
15673;SDS011;7937;48.090;16.212;2023-05-14T15:18:52;8.10;;;7.27;;
15673;SDS011;7937;48.090;16.212;2023-05-14T15:21:55;7.87;;;7.13;;
15673;SDS011;7937;48.090;16.212;2023-05-14T15:24:57;7.57;;;6.80;;
15673;SDS011;7937;48.090;16.212;2023-05-14T15:28:00;7.30;;;6.30;;
15673;SDS011;7937;48.090;16.212;2023-05-14T15:31:02;6.73;;;6.13;;
15673;SDS011;7937;48.090;16.212;2023-05-14T15:34:04;6.67;;;6.00;;
15673;SDS011;7937;48.090;16.212;2023-05-14T15:37:07;6.63;;;6.03;;
15673;SDS011;7937;48.090;16.212;2023-05-14T15:40:11;10.73;;;6.90;;
15673;SDS011;7937;48.090;16.212;2023-05-14T15:43:13;7.37;;;6.67;;
15673;SDS011;7937;48.090;16.212;2023-05-14T15:46:16;8.67;;;7.30;;
15673;SDS011;7937;48.090;16.212;2023-05-14T15:49:18;8.47;;;7.57;;
15673;SDS011;7937;48.090;16.212;2023-05-14T15:52:20;7.37;;;6.67;;
15673;SDS011;7937;48.090;16.212;2023-05-14T15:55:23;7.73;;;7.00;;
15673;SDS011;7937;48.090;16.212;2023-05-14T15:58:25;13.27;;;7.97;;
15673;SDS011;7937;48.090;16.212;2023-05-14T16:01:28;8.90;;;7.57;;
15673;SDS011;7937;48.090;16.212;2023-05-14T16:04:31;8.43;;;6.90;;
15673;SDS011;7937;48.090;16.212;2023-05-14T16:07:33;7.37;;;6.73;;
15673;SDS011;7937;48.090;16.212;2023-05-14T16:10:35;6.97;;;6.17;;
15673;SDS011;7937;48.090;16.212;2023-05-14T16:13:38;8.37;;;7.10;;
15673;SDS011;7937;48.090;16.212;2023-05-14T16:16:42;7.67;;;6.73;;
15673;SDS011;7937;48.090;16.212;2023-05-14T16:19:44;6.43;;;5.83;;
15673;SDS011;7937;48.090;16.212;2023-05-14T16:22:47;6.13;;;5.53;;
15673;SDS011;7937;48.090;16.212;2023-05-14T16:25:49;5.47;;;4.97;;
15673;SDS011;7937;48.090;16.212;2023-05-14T16:28:51;6.33;;;5.30;;
15673;SDS011;7937;48.090;16.212;2023-05-14T16:31:53;5.60;;;5.10;;
15673;SDS011;7937;48.090;16.212;2023-05-14T16:34:56;5.40;;;5.00;;
15673;SDS011;7937;48.090;16.212;2023-05-14T16:37:59;5.30;;;4.80;;
15673;SDS011;7937;48.090;16.212;2023-05-14T16:41:02;5.13;;;4.63;;
15673;SDS011;7937;48.090;16.212;2023-05-14T16:44:07;4.90;;;3.97;;
15673;SDS011;7937;48.090;16.212;2023-05-14T16:47:10;5.73;;;5.17;;
15673;SDS011;7937;48.090;16.212;2023-05-14T16:50:13;5.07;;;4.57;;
15673;SDS011;7937;48.090;16.212;2023-05-14T16:53:15;5.30;;;4.30;;
15673;SDS011;7937;48.090;16.212;2023-05-14T16:56:17;5.37;;;4.87;;
15673;SDS011;7937;48.090;16.212;2023-05-14T16:59:19;5.67;;;5.17;;
15673;SDS011;7937;48.090;16.212;2023-05-14T17:02:22;4.67;;;4.27;;
15673;SDS011;7937;48.090;16.212;2023-05-14T17:05:24;6.43;;;4.90;;
15673;SDS011;7937;48.090;16.212;2023-05-14T17:08:27;5.30;;;4.73;;
15673;SDS011;7937;48.090;16.212;2023-05-14T17:11:34;4.60;;;4.20;;
15673;SDS011;7937;48.090;16.212;2023-05-14T17:14:36;5.47;;;4.97;;
15673;SDS011;7937;48.090;16.212;2023-05-14T17:17:39;5.13;;;4.30;;
15673;SDS011;7937;48.090;16.212;2023-05-14T17:20:42;5.30;;;4.80;;
15673;SDS011;7937;48.090;16.212;2023-05-14T17:23:44;4.93;;;4.53;;
15673;SDS011;7937;48.090;16.212;2023-05-14T17:26:46;4.90;;;4.50;;
15673;SDS011;7937;48.090;16.212;2023-05-14T17:29:48;5.20;;;4.70;;
15673;SDS011;7937;48.090;16.212;2023-05-14T17:32:51;4.93;;;4.13;;
15673;SDS011;7937;48.090;16.212;2023-05-14T17:35:54;4.73;;;4.10;;
15673;SDS011;7937;48.090;16.212;2023-05-14T17:38:56;4.77;;;4.27;;
15673;SDS011;7937;48.090;16.212;2023-05-14T17:41:58;5.73;;;3.90;;
15673;SDS011;7937;48.090;16.212;2023-05-14T17:45:01;4.60;;;4.20;;
15673;SDS011;7937;48.090;16.212;2023-05-14T17:48:03;4.53;;;4.13;;
15673;SDS011;7937;48.090;16.212;2023-05-14T17:51:05;5.83;;;5.23;;
15673;SDS011;7937;48.090;16.212;2023-05-14T17:54:08;5.87;;;4.43;;
15673;SDS011;7937;48.090;16.212;2023-05-14T17:57:10;4.90;;;4.27;;
15673;SDS011;7937;48.090;16.212;2023-05-14T18:00:12;3.73;;;3.40;;
15673;SDS011;7937;48.090;16.212;2023-05-14T18:03:15;4.27;;;3.70;;
15673;SDS011;7937;48.090;16.212;2023-05-14T18:06:18;4.10;;;3.80;;
15673;SDS011;7937;48.090;16.212;2023-05-14T18:09:21;4.10;;;3.80;;
15673;SDS011;7937;48.090;16.212;2023-05-14T18:12:23;4.10;;;3.70;;
15673;SDS011;7937;48.090;16.212;2023-05-14T18:15:27;4.37;;;4.03;;
15673;SDS011;7937;48.090;16.212;2023-05-14T18:18:32;4.03;;;3.63;;
15673;SDS011;7937;48.090;16.212;2023-05-14T18:21:35;3.40;;;3.10;;
15673;SDS011;7937;48.090;16.212;2023-05-14T18:24:37;3.90;;;3.60;;
15673;SDS011;7937;48.090;16.212;2023-05-14T18:27:39;3.90;;;3.60;;
15673;SDS011;7937;48.090;16.212;2023-05-14T18:30:48;4.40;;;3.77;;